createdAt,value
2023-04-06T00:01:01.985Z,101594.44
2023-04-06T00:03:30.711Z,101586.94
2023-04-06T00:05:59.266Z,101586.50
2023-04-06T00:08:29.865Z,101592.84
2023-04-06T00:10:58.414Z,101569.88
2023-04-06T00:13:26.909Z,101591.25
2023-04-06T00:15:55.421Z,101587.53
2023-04-06T00:18:24.774Z,101593.03
2023-04-06T00:20:53.229Z,101589.34
2023-04-06T00:23:21.791Z,101584.03
2023-04-06T00:25:51.621Z,101585.84
2023-04-06T00:28:26.041Z,101573.41
2023-04-06T00:30:56.341Z,101481.28
2023-04-06T00:33:25.783Z,101557.41
2023-04-06T00:35:54.303Z,101553.81
2023-04-06T00:38:24.265Z,101549.47
2023-04-06T00:40:54.133Z,101553.00
2023-04-06T00:43:23.057Z,101549.47
2023-04-06T00:45:51.526Z,101537.00
2023-04-06T00:48:19.964Z,101544.94
2023-04-06T00:50:48.464Z,101539.63
2023-04-06T00:53:17.237Z,101527.22
2023-04-06T00:55:45.704Z,101529.00
2023-04-06T00:58:15.916Z,101538.44
2023-04-06T01:00:53.255Z,101526.00
2023-04-06T01:03:24.756Z,101526.97
2023-04-06T01:05:59.121Z,101521.78
2023-04-06T01:08:32.973Z,101521.13
2023-04-06T01:11:14.509Z,101519.34
2023-04-06T01:13:44.859Z,101509.63
2023-04-06T01:16:31.784Z,101504.34
2023-04-06T01:19:14.126Z,101507.91
2023-04-06T01:21:54.311Z,101504.47
2023-04-06T01:24:33.552Z,101496.97
2023-04-06T01:27:08.524Z,101494.28
2023-04-06T01:29:52.107Z,101486.47
2023-04-06T01:32:36.664Z,101483.78
2023-04-06T01:35:05.815Z,101481.16
2023-04-06T01:37:38.081Z,101479.44
2023-04-06T01:40:12.590Z,101478.63
2023-04-06T01:42:49.165Z,101473.34
2023-04-06T01:45:25.133Z,101471.44
2023-04-06T01:47:56.423Z,101469.72
2023-04-06T01:50:27.743Z,101474.97
2023-04-06T01:52:56.575Z,101465.25
2023-04-06T01:55:28.107Z,101464.28
2023-04-06T01:58:17.145Z,101460.75
2023-04-06T02:00:45.881Z,101454.59
2023-04-06T02:03:15.708Z,101453.59
2023-04-06T02:05:44.860Z,101445.75
2023-04-06T02:08:31.453Z,101452.75
2023-04-06T02:11:01.469Z,101446.59
2023-04-06T02:13:36.146Z,101434.41
2023-04-06T02:16:04.901Z,101444.06
2023-04-06T02:18:33.570Z,101445.00
2023-04-06T02:21:02.425Z,101408.78
2023-04-06T02:23:31.023Z,101438.22
2023-04-06T02:26:01.385Z,101443.56
2023-04-06T02:28:30.082Z,101438.38
2023-04-06T02:30:58.474Z,101437.63
2023-04-06T02:33:29.287Z,101438.44
2023-04-06T02:35:57.785Z,101433.09
2023-04-06T02:38:26.334Z,101429.53
2023-04-06T02:40:54.835Z,101422.44
2023-04-06T02:43:27.491Z,101421.53
2023-04-06T02:46:04.300Z,101418.81
2023-04-06T02:48:37.278Z,101419.63
2023-04-06T02:51:07.008Z,101405.53
2023-04-06T02:53:35.973Z,101412.56
2023-04-06T02:56:04.796Z,101407.28
2023-04-06T02:58:45.343Z,101408.19
2023-04-06T03:01:13.968Z,101415.28
2023-04-06T03:03:43.962Z,101406.47
2023-04-06T03:06:19.561Z,101406.56
2023-04-06T03:08:49.303Z,101399.53
2023-04-06T03:11:17.766Z,101393.38
2023-04-06T03:13:48.109Z,101416.25
2023-04-06T03:16:16.657Z,101399.66
2023-04-06T03:18:46.113Z,101398.78
2023-04-06T03:21:17.208Z,101390.72
2023-04-06T03:23:51.865Z,101395.94
2023-04-06T03:26:20.497Z,101389.84
2023-04-06T03:28:50.297Z,101401.34
2023-04-06T03:31:19.023Z,101392.44
2023-04-06T03:34:01.145Z,101346.44
2023-04-06T03:36:36.175Z,101382.84
2023-04-06T03:39:06.851Z,101384.72
2023-04-06T03:41:38.649Z,101377.66
2023-04-06T03:44:29.858Z,101382.19
2023-04-06T03:46:58.335Z,101381.34
2023-04-06T03:49:27.493Z,101380.53
2023-04-06T03:51:56.045Z,101377.81
2023-04-06T03:54:25.175Z,101370.72
2023-04-06T03:56:53.879Z,101377.78
2023-04-06T03:59:22.360Z,101376.84
2023-04-06T04:01:52.394Z,101374.19
2023-04-06T04:04:20.854Z,101371.56
2023-04-06T04:06:49.248Z,101373.38
2023-04-06T04:09:17.701Z,101377.88
2023-04-06T04:11:46.119Z,101370.81
2023-04-06T04:14:14.543Z,101353.25
2023-04-06T04:16:43.110Z,101363.94
2023-04-06T04:19:13.105Z,101362.28
2023-04-06T04:21:46.558Z,101331.41
2023-04-06T04:24:18.742Z,101370.22
2023-04-06T04:26:47.383Z,101365.78
2023-04-06T04:29:16.501Z,101365.84
2023-04-06T04:31:45.250Z,101372.09
2023-04-06T04:34:21.556Z,101365.97
2023-04-06T04:36:49.990Z,101375.69
2023-04-06T04:39:25.790Z,101376.66
2023-04-06T04:42:02.369Z,101367.00
2023-04-06T04:44:32.670Z,101369.78
2023-04-06T04:47:01.755Z,101370.69
2023-04-06T04:49:42.524Z,101363.66
2023-04-06T04:52:11.912Z,101366.34
2023-04-06T04:55:03.785Z,101370.91
2023-04-06T04:57:32.968Z,101370.00
2023-04-06T05:00:02.644Z,101368.19
2023-04-06T05:02:31.789Z,101364.66
2023-04-06T05:05:23.946Z,101369.09
2023-04-06T05:07:53.178Z,101365.66
2023-04-06T05:10:45.353Z,101368.41
2023-04-06T05:13:14.136Z,101365.75
2023-04-06T05:15:43.162Z,101356.09
2023-04-06T05:18:22.161Z,101367.50
2023-04-06T05:20:52.712Z,101363.13
2023-04-06T05:23:26.065Z,101364.88
2023-04-06T05:25:54.877Z,101353.41
2023-04-06T05:28:24.986Z,101363.16
2023-04-06T05:30:54.705Z,101357.84
2023-04-06T05:33:23.530Z,101237.69
2023-04-06T05:36:15.141Z,101359.63
2023-04-06T05:38:46.853Z,101359.63
2023-04-06T05:41:36.735Z,101377.22
2023-04-06T05:44:05.369Z,101345.56
2023-04-06T05:46:34.860Z,101344.72
2023-04-06T05:49:06.229Z,101353.53
2023-04-06T05:51:38.068Z,101348.34
2023-04-06T05:54:06.745Z,101348.38
2023-04-06T05:56:35.736Z,101348.41
2023-04-06T05:59:05.049Z,101344.88
2023-04-06T06:01:34.958Z,101355.47
2023-04-06T06:04:03.928Z,101328.94
2023-04-06T06:06:34.846Z,101354.59
2023-04-06T06:09:22.800Z,101349.31
2023-04-06T06:12:02.040Z,101352.00
2023-04-06T06:14:31.568Z,101344.94
2023-04-06T06:17:01.346Z,101355.56
2023-04-06T06:19:30.586Z,101348.50
2023-04-06T06:22:03.981Z,101349.41
2023-04-06T06:24:34.892Z,101354.72
2023-04-06T06:27:04.873Z,101346.78
2023-04-06T06:29:36.372Z,101343.28
2023-04-06T06:32:05.158Z,101358.28
2023-04-06T06:34:34.218Z,101360.06
2023-04-06T06:37:05.900Z,101353.94
2023-04-06T06:39:35.819Z,101349.50
2023-04-06T06:42:04.688Z,101355.69
2023-04-06T06:44:56.451Z,101348.63
2023-04-06T06:47:26.538Z,101344.22
2023-04-06T06:49:55.243Z,101350.41
2023-04-06T06:52:25.005Z,101349.53
2023-04-06T06:54:57.557Z,101347.75
2023-04-06T06:57:26.353Z,101342.50
2023-04-06T06:59:55.100Z,101344.25
2023-04-06T07:02:24.501Z,101336.31
2023-04-06T07:04:53.207Z,101335.44
2023-04-06T07:07:21.981Z,101333.69
2023-04-06T07:09:50.501Z,101319.56
2023-04-06T07:12:20.351Z,101326.63
2023-04-06T07:14:48.847Z,101332.81
2023-04-06T07:17:17.345Z,101331.91
2023-04-06T07:19:46.130Z,101321.31
2023-04-06T07:22:14.949Z,101324.84
2023-04-06T07:24:43.410Z,101330.16
2023-04-06T07:27:11.864Z,101316.91
2023-04-06T07:29:41.966Z,101319.56
2023-04-06T07:32:10.575Z,101323.94
2023-04-06T07:34:39.636Z,101323.97
2023-04-06T07:37:08.878Z,101320.41
2023-04-06T07:39:37.483Z,101316.00
2023-04-06T07:42:06.682Z,101319.53
2023-04-06T07:44:35.257Z,101323.03
2023-04-06T07:47:05.256Z,101323.91
2023-04-06T07:49:34.365Z,101317.72
2023-04-06T07:52:04.127Z,101317.72
2023-04-06T07:54:33.031Z,101312.44
2023-04-06T07:57:01.477Z,101309.81
2023-04-06T07:59:30.145Z,101324.78
2023-04-06T08:01:58.653Z,101313.31
2023-04-06T08:04:28.550Z,101327.44
2023-04-06T08:06:57.080Z,101322.13
2023-04-06T08:09:25.736Z,101318.59
2023-04-06T08:11:54.296Z,101319.50
2023-04-06T08:14:22.742Z,101320.34
2023-04-06T08:16:51.434Z,101329.22
2023-04-06T08:19:19.966Z,101329.16
2023-04-06T08:21:49.801Z,101317.69
2023-04-06T08:24:18.241Z,101335.31
2023-04-06T08:26:46.713Z,101329.06
2023-04-06T08:29:15.120Z,101328.25
2023-04-06T08:31:43.707Z,101341.41
2023-04-06T08:34:14.109Z,101331.66
2023-04-06T08:36:43.641Z,101334.28
2023-04-06T08:39:13.553Z,101343.09
2023-04-06T08:41:44.952Z,101326.38
2023-04-06T08:44:14.186Z,101322.00
2023-04-06T08:46:42.847Z,101336.97
2023-04-06T08:49:11.584Z,101321.91
2023-04-06T08:51:40.497Z,101322.88
2023-04-06T08:54:09.195Z,101320.22
2023-04-06T08:56:41.345Z,101323.53
2023-04-06T08:59:11.721Z,101284.69
2023-04-06T09:01:43.345Z,101323.44
2023-04-06T09:04:13.903Z,101275.63
2023-04-06T09:06:42.924Z,101316.47
2023-04-06T09:09:11.506Z,101316.38
2023-04-06T09:11:52.896Z,101322.41
2023-04-06T09:14:37.453Z,101300.41
2023-04-06T09:17:07.339Z,101331.34
2023-04-06T09:19:35.815Z,101302.19
2023-04-06T09:22:08.011Z,101329.50
2023-04-06T09:24:44.607Z,101192.53
2023-04-06T09:27:15.188Z,101316.22
2023-04-06T09:29:44.023Z,101321.50
2023-04-06T09:32:17.564Z,101315.34
2023-04-06T09:34:50.877Z,101283.50
2023-04-06T09:37:21.516Z,101324.09
2023-04-06T09:39:52.512Z,101309.06
2023-04-06T09:42:27.768Z,101308.13
2023-04-06T09:44:56.805Z,101298.50
2023-04-06T09:47:29.229Z,101263.06
2023-04-06T09:50:00.238Z,101302.03
2023-04-06T09:52:34.742Z,101295.81
2023-04-06T09:55:08.995Z,101288.75
2023-04-06T09:57:57.923Z,101307.22
2023-04-06T10:00:28.103Z,101297.56
2023-04-06T10:03:07.084Z,101272.00
2023-04-06T10:05:48.069Z,101307.16
2023-04-06T10:08:17.401Z,101288.75
2023-04-06T10:10:45.919Z,101288.72
2023-04-06T10:13:15.751Z,101284.34
2023-04-06T10:15:45.373Z,101291.31
2023-04-06T10:18:14.399Z,101281.72
2023-04-06T10:20:50.604Z,101277.28
2023-04-06T10:23:29.116Z,101278.22
2023-04-06T10:25:59.089Z,101276.38
2023-04-06T10:28:35.240Z,101260.41
2023-04-06T10:31:07.075Z,101263.25
2023-04-06T10:33:36.507Z,101269.53
2023-04-06T10:36:13.496Z,101280.88
2023-04-06T10:38:43.768Z,101272.09
2023-04-06T10:41:14.830Z,101266.84
2023-04-06T10:43:45.418Z,101245.75
2023-04-06T10:46:15.504Z,101272.16
2023-04-06T10:48:46.478Z,101252.81
2023-04-06T10:51:17.165Z,101237.06
2023-04-06T10:53:47.768Z,101245.84
2023-04-06T10:56:21.328Z,101249.28
2023-04-06T10:58:53.687Z,101237.06
2023-04-06T11:01:24.299Z,101239.72
2023-04-06T11:03:55.052Z,101224.56
2023-04-06T11:06:25.655Z,101240.47
2023-04-06T11:08:55.646Z,101248.44
2023-04-06T11:11:27.364Z,101218.38
2023-04-06T11:13:59.435Z,101229.88
2023-04-06T11:16:31.373Z,101245.78
2023-04-06T11:19:01.950Z,101246.66
2023-04-06T11:21:40.146Z,101247.53
2023-04-06T11:24:14.215Z,101242.25
2023-04-06T11:26:45.845Z,101224.59
2023-04-06T11:29:17.980Z,101268.66
2023-04-06T11:31:49.968Z,101199.91
2023-04-06T11:34:21.034Z,101241.34
2023-04-06T11:36:51.704Z,101219.34
2023-04-06T11:39:25.139Z,101251.03
2023-04-06T11:41:55.609Z,101212.31
2023-04-06T11:44:36.135Z,101224.63
2023-04-06T11:47:05.590Z,101225.56
2023-04-06T11:49:35.926Z,101209.69
2023-04-06T11:52:05.033Z,101211.56
2023-04-06T11:54:35.392Z,101231.75
2023-04-06T11:57:05.052Z,101212.41
2023-04-06T11:59:35.344Z,101219.47
2023-04-06T12:02:05.052Z,101232.59
2023-04-06T12:04:34.070Z,101202.66
2023-04-06T12:07:02.545Z,101210.53
2023-04-06T12:09:31.178Z,101206.19
2023-04-06T12:11:59.941Z,101215.91
2023-04-06T12:14:28.654Z,101082.66
2023-04-06T12:16:58.667Z,101204.47
2023-04-06T12:19:27.917Z,101188.59
2023-04-06T12:21:57.778Z,101207.13
2023-04-06T12:24:26.266Z,101137.34
2023-04-06T12:27:08.720Z,101199.13
2023-04-06T12:29:38.376Z,101197.31
2023-04-06T12:32:08.208Z,101192.03
2023-04-06T12:34:36.729Z,101198.16
2023-04-06T12:37:05.466Z,101194.72
2023-04-06T12:39:34.153Z,101199.97
2023-04-06T12:42:03.651Z,101182.38
2023-04-06T12:44:32.147Z,101199.91
2023-04-06T12:47:00.607Z,101168.28
2023-04-06T12:49:31.979Z,101176.25
2023-04-06T12:52:00.661Z,101182.38
2023-04-06T12:54:30.000Z,101199.16
2023-04-06T12:56:58.740Z,101146.25
2023-04-06T12:59:27.539Z,101192.09
2023-04-06T13:01:56.112Z,101170.06
2023-04-06T13:04:25.417Z,101166.56
2023-04-06T13:06:55.373Z,101168.34
2023-04-06T13:09:23.791Z,101169.19
2023-04-06T13:11:52.566Z,101168.28
2023-04-06T13:14:21.925Z,101161.34
2023-04-06T13:16:50.823Z,101154.31
2023-04-06T13:19:19.407Z,101152.56
2023-04-06T13:21:47.890Z,101158.72
2023-04-06T13:24:18.066Z,101142.94
2023-04-06T13:26:46.595Z,101151.69
2023-04-06T13:29:15.036Z,101160.53
2023-04-06T13:31:43.578Z,101141.16
2023-04-06T13:34:12.285Z,101145.53
2023-04-06T13:36:42.822Z,101156.19
2023-04-06T13:39:11.452Z,101154.38
2023-04-06T13:41:41.890Z,101152.63
2023-04-06T13:44:10.727Z,101157.03
2023-04-06T13:46:39.139Z,101144.75
2023-04-06T13:49:07.622Z,101161.44
2023-04-06T13:51:36.360Z,101152.63
2023-04-06T13:54:04.968Z,101135.03
2023-04-06T13:56:33.455Z,101132.41
2023-04-06T13:59:04.761Z,101038.94
2023-04-06T14:01:33.463Z,101134.19
2023-04-06T14:04:02.523Z,101130.66
2023-04-06T14:06:32.196Z,101130.69
2023-04-06T14:09:01.030Z,101143.03
2023-04-06T14:11:29.390Z,101124.53
2023-04-06T14:13:58.746Z,101144.75
2023-04-06T14:16:28.642Z,101129.78
2023-04-06T14:18:58.731Z,101126.31
2023-04-06T14:21:27.410Z,101118.41
2023-04-06T14:23:58.055Z,101122.84
2023-04-06T14:26:28.642Z,101132.53
2023-04-06T14:28:57.070Z,101124.59
2023-04-06T14:31:25.622Z,101109.63
2023-04-06T14:33:55.567Z,101106.97
2023-04-06T14:36:24.086Z,101088.47
2023-04-06T14:38:53.366Z,101125.50
2023-04-06T14:41:25.018Z,101128.16
2023-04-06T14:43:54.419Z,101105.22
2023-04-06T14:46:22.881Z,101095.50
2023-04-06T14:48:51.853Z,101103.44
2023-04-06T14:51:21.579Z,101113.13
2023-04-06T14:53:50.052Z,101101.66
2023-04-06T14:56:23.294Z,101106.06
2023-04-06T14:58:52.828Z,101098.13
2023-04-06T15:01:21.885Z,101105.16
2023-04-06T15:03:50.636Z,101096.38
2023-04-06T15:06:21.882Z,101110.47
2023-04-06T15:08:51.358Z,101069.06
2023-04-06T15:11:19.700Z,101107.84
2023-04-06T15:13:48.336Z,101083.16
2023-04-06T15:16:16.892Z,101099.00
2023-04-06T15:18:45.406Z,101088.41
2023-04-06T15:21:13.738Z,101106.06
2023-04-06T15:23:43.433Z,101092.84
2023-04-06T15:26:11.974Z,101089.28
2023-04-06T15:28:40.450Z,101094.56
2023-04-06T15:31:28.217Z,101091.03
2023-04-06T15:34:01.991Z,101087.50
2023-04-06T15:36:31.782Z,101099.84
2023-04-06T15:39:02.257Z,101006.50
2023-04-06T15:41:30.727Z,101084.84
2023-04-06T15:43:59.218Z,101082.22
2023-04-06T15:46:28.948Z,101086.56
2023-04-06T15:48:58.091Z,101087.44
2023-04-06T15:51:26.501Z,101089.25
2023-04-06T15:53:54.967Z,101083.03
2023-04-06T15:56:24.596Z,101075.06
2023-04-06T15:58:52.924Z,101075.91
2023-04-06T16:01:21.416Z,101079.50
2023-04-06T16:03:50.018Z,101083.88
2023-04-06T16:06:18.653Z,101065.34
2023-04-06T16:08:47.135Z,101082.13
2023-04-06T16:11:15.595Z,101086.53
2023-04-06T16:13:50.067Z,101072.44
2023-04-06T16:16:23.541Z,101084.78
2023-04-06T16:18:51.996Z,101087.38
2023-04-06T16:21:20.665Z,101088.25
2023-04-06T16:23:49.296Z,101090.00
2023-04-06T16:26:19.143Z,101084.69
2023-04-06T16:28:49.622Z,101081.19
2023-04-06T16:31:20.092Z,101046.81
2023-04-06T16:33:48.820Z,101077.63
2023-04-06T16:36:23.453Z,101084.59
2023-04-06T16:38:52.148Z,101080.16
2023-04-06T16:41:21.065Z,101083.75
2023-04-06T16:43:51.487Z,101085.47
2023-04-06T16:46:20.379Z,101084.59
2023-04-06T16:48:49.130Z,101085.50
2023-04-06T16:51:18.832Z,101089.88
2023-04-06T16:53:48.266Z,101088.97
2023-04-06T16:56:16.915Z,101089.81
2023-04-06T16:58:46.333Z,101087.16
2023-04-06T17:01:24.240Z,101088.94
2023-04-06T17:03:52.757Z,101080.97
2023-04-06T17:06:21.687Z,101096.00
2023-04-06T17:08:51.122Z,101095.94
2023-04-06T17:11:25.502Z,101093.25
2023-04-06T17:13:59.867Z,101094.13
2023-04-06T17:16:34.402Z,101090.56
2023-04-06T17:19:12.078Z,101105.56
2023-04-06T17:21:42.113Z,101104.63
2023-04-06T17:24:10.840Z,101105.47
2023-04-06T17:26:39.202Z,101108.97
2023-04-06T17:29:07.569Z,101110.75
2023-04-06T17:31:37.497Z,101116.88
2023-04-06T17:34:06.198Z,101123.13
2023-04-06T17:36:34.520Z,101121.28
2023-04-06T17:39:03.290Z,101114.34
2023-04-06T17:41:33.768Z,101115.34
2023-04-06T17:44:02.368Z,101101.31
2023-04-06T17:46:30.935Z,101110.00
2023-04-06T17:49:00.911Z,101103.16
2023-04-06T17:51:29.260Z,101118.16
2023-04-06T17:53:57.863Z,101119.03
2023-04-06T17:56:26.566Z,101128.75
2023-04-06T17:58:58.009Z,101098.75
2023-04-06T18:01:26.785Z,101129.59
2023-04-06T18:03:55.429Z,101137.56
2023-04-06T18:06:25.908Z,101130.50
2023-04-06T18:08:55.818Z,101132.19
2023-04-06T18:11:25.720Z,101137.53
2023-04-06T18:13:54.177Z,101143.72
2023-04-06T18:16:22.678Z,101147.19
2023-04-06T18:18:51.200Z,101134.88
2023-04-06T18:21:19.531Z,101148.94
2023-04-06T18:23:49.456Z,101056.50
2023-04-06T18:26:19.806Z,101153.34
2023-04-06T18:28:48.781Z,101165.72
2023-04-06T18:31:18.622Z,101148.06
2023-04-06T18:33:47.443Z,101173.66
2023-04-06T18:36:15.985Z,101172.81
2023-04-06T18:38:47.891Z,101171.94
2023-04-06T18:41:18.217Z,101177.31
2023-04-06T18:43:46.610Z,101189.59
2023-04-06T18:46:16.525Z,101157.91
2023-04-06T18:48:44.955Z,101190.56
2023-04-06T18:51:13.503Z,101177.38
2023-04-06T18:53:41.864Z,101210.88
2023-04-06T18:56:19.332Z,101218.81
2023-04-06T18:58:49.205Z,101179.13
2023-04-06T19:01:25.694Z,101208.22
2023-04-06T19:03:55.833Z,101215.28
2023-04-06T19:06:25.153Z,101214.44
2023-04-06T19:08:53.640Z,101219.75
2023-04-06T19:11:25.167Z,101210.91
2023-04-06T19:13:55.096Z,101224.22
2023-04-06T19:16:23.794Z,101225.13
2023-04-06T19:18:52.162Z,101222.47
2023-04-06T19:21:22.628Z,101229.53
2023-04-06T19:23:54.421Z,101227.75
2023-04-06T19:26:27.813Z,101226.88
2023-04-06T19:28:56.465Z,101120.22
2023-04-06T19:31:26.897Z,101234.84
2023-04-06T19:33:55.446Z,101232.19
2023-04-06T19:36:23.929Z,101239.22
2023-04-06T19:38:52.601Z,101237.47
2023-04-06T19:41:21.500Z,101236.59
2023-04-06T19:43:51.339Z,101235.72
2023-04-06T19:46:19.978Z,101246.28
2023-04-06T19:48:48.389Z,101203.97
2023-04-06T19:51:17.005Z,101241.03
2023-04-06T19:53:45.315Z,101239.25
2023-04-06T19:56:13.819Z,101179.25
2023-04-06T19:58:42.264Z,101246.28
2023-04-06T20:01:11.986Z,101248.09
2023-04-06T20:03:40.980Z,101255.13
2023-04-06T20:06:09.453Z,101256.00
2023-04-06T20:08:37.880Z,101251.59
2023-04-06T20:11:07.615Z,101246.31
2023-04-06T20:13:36.241Z,101247.19
2023-04-06T20:16:05.092Z,101252.47
2023-04-06T20:18:34.957Z,101263.06
2023-04-06T20:21:03.410Z,101275.41
2023-04-06T20:23:34.870Z,101277.19
2023-04-06T20:26:03.357Z,101280.72
2023-04-06T20:28:32.730Z,101284.25
2023-04-06T20:31:01.331Z,101281.59
2023-04-06T20:33:30.230Z,101259.53
2023-04-06T20:36:01.495Z,101286.00
2023-04-06T20:38:33.813Z,101280.72
2023-04-06T20:41:02.719Z,101293.06
2023-04-06T20:43:31.870Z,101290.44
2023-04-06T20:46:02.169Z,101259.53
2023-04-06T20:48:33.697Z,101291.31
2023-04-06T20:51:06.594Z,101297.47
2023-04-06T20:53:35.196Z,101281.56
2023-04-06T20:56:03.653Z,101304.53
2023-04-06T20:58:32.167Z,101298.34
2023-04-06T21:01:00.538Z,101303.63
2023-04-06T21:03:29.162Z,101300.13
2023-04-06T21:05:59.853Z,101293.91
2023-04-06T21:08:29.660Z,101291.28
2023-04-06T21:10:58.136Z,101295.69
2023-04-06T21:13:26.487Z,101293.94
2023-04-06T21:15:56.183Z,101287.75
2023-04-06T21:18:24.942Z,101303.63
2023-04-06T21:20:53.431Z,101300.94
2023-04-06T21:23:23.031Z,101308.03
2023-04-06T21:25:55.355Z,101305.38
2023-04-06T21:28:24.152Z,101312.44
2023-04-06T21:30:52.611Z,101307.16
2023-04-06T21:33:21.247Z,101308.91
2023-04-06T21:35:50.062Z,101265.66
2023-04-06T21:38:18.531Z,101304.47
2023-04-06T21:40:47.157Z,101300.09
2023-04-06T21:43:17.166Z,101303.53
2023-04-06T21:45:50.961Z,101309.72
2023-04-06T21:48:19.557Z,101318.56
2023-04-06T21:50:47.875Z,101313.31
2023-04-06T21:53:16.310Z,101310.69
2023-04-06T21:55:45.732Z,101317.69
2023-04-06T21:58:16.378Z,101315.91
2023-04-06T22:00:44.629Z,101312.34
2023-04-06T22:03:13.121Z,101308.84
2023-04-06T22:07:13.425Z,101304.44
2023-04-06T22:10:50.473Z,101313.25
2023-04-06T22:13:20.281Z,101319.41
2023-04-06T22:15:48.713Z,101315.00
2023-04-06T22:18:17.004Z,101324.69
2023-04-06T22:20:45.697Z,101324.75
2023-04-06T22:23:14.306Z,101324.75
2023-04-06T22:25:42.696Z,101329.16
2023-04-06T22:28:11.026Z,101323.88
2023-04-06T22:30:40.739Z,101322.06
2023-04-06T22:33:09.074Z,101307.97
2023-04-06T22:35:37.442Z,101329.19
2023-04-06T22:38:05.924Z,101339.75
2023-04-06T22:40:34.379Z,101343.28
2023-04-06T22:43:02.722Z,101345.91
2023-04-06T22:45:31.002Z,101349.50
2023-04-06T22:48:00.779Z,101351.25
2023-04-06T22:50:29.113Z,101340.63
2023-04-06T22:52:57.406Z,101336.25
2023-04-06T22:55:26.130Z,101337.16
2023-04-06T22:57:54.569Z,101332.75
2023-04-06T23:00:23.122Z,101360.91
2023-04-06T23:02:51.748Z,101338.94
2023-04-06T23:05:21.374Z,101340.66
2023-04-06T23:07:51.250Z,101338.03
2023-04-06T23:10:20.372Z,101334.53
2023-04-06T23:12:49.255Z,101342.44
2023-04-06T23:15:17.856Z,101352.13
2023-04-06T23:17:47.087Z,101345.97
2023-04-06T23:20:15.910Z,101353.94
2023-04-06T23:22:45.885Z,101355.69
2023-04-06T23:25:14.569Z,101344.19
2023-04-06T23:27:42.952Z,101355.69
2023-04-06T23:30:11.971Z,101364.47
2023-04-06T23:32:40.555Z,101363.59
2023-04-06T23:35:10.328Z,101364.50
2023-04-06T23:37:38.662Z,101353.06
2023-04-06T23:40:11.076Z,101369.81
2023-04-06T23:42:39.363Z,101376.88
2023-04-06T23:45:09.500Z,101377.75
2023-04-06T23:47:37.909Z,101381.25
2023-04-06T23:50:07.706Z,101375.97
2023-04-06T23:52:36.122Z,101385.69
2023-04-06T23:55:05.300Z,101375.09
2023-04-06T23:57:34.967Z,101385.69
